createdAt,value
2018-03-15T00:01:25.947Z,99157.09
2018-03-15T00:03:53.608Z,99158.44
2018-03-15T00:06:21.220Z,99153.83
2018-03-15T00:08:48.793Z,99159.88
2018-03-15T00:11:16.590Z,99160.70
2018-03-15T00:13:44.217Z,99156.30
2018-03-15T00:16:11.777Z,99152.09
2018-03-15T00:18:39.349Z,99147.58
2018-03-15T00:21:07.031Z,99149.42
2018-03-15T00:23:34.699Z,99141.23
2018-03-15T00:26:02.257Z,99144.11
2018-03-15T00:28:30.024Z,99141.95
2018-03-15T00:30:57.606Z,99141.25
2018-03-15T00:33:25.352Z,99142.59
2018-03-15T00:35:52.975Z,99140.44
2018-03-15T00:38:20.571Z,99139.91
2018-03-15T00:40:48.329Z,99147.07
2018-03-15T00:43:16.172Z,99140.02
2018-03-15T00:45:43.749Z,99140.92
2018-03-15T00:48:11.532Z,99146.23
2018-03-15T00:50:39.385Z,99139.27
2018-03-15T00:53:07.110Z,99143.38
2018-03-15T00:55:34.786Z,99135.56
2018-03-15T00:58:02.405Z,99138.33
2018-03-15T01:00:30.002Z,99139.58
2018-03-15T01:02:57.587Z,99141.64
2018-03-15T01:05:25.202Z,99144.83
2018-03-15T01:07:52.828Z,99139.68
2018-03-15T01:10:20.492Z,99135.36
2018-03-15T01:12:48.154Z,99137.60
2018-03-15T01:15:15.729Z,99134.03
2018-03-15T01:17:43.380Z,99132.06
2018-03-15T01:20:10.994Z,99136.70
2018-03-15T01:22:38.639Z,99141.72
2018-03-15T01:25:06.215Z,99142.75
2018-03-15T01:27:33.832Z,99141.34
2018-03-15T01:30:01.576Z,99141.84
2018-03-15T01:32:29.160Z,99141.25
2018-03-15T01:34:56.752Z,99140.23
2018-03-15T01:37:24.402Z,99142.37
2018-03-15T01:39:51.975Z,99137.97
2018-03-15T01:42:19.672Z,99134.52
2018-03-15T01:44:47.239Z,99136.25
2018-03-15T01:47:15.004Z,99138.82
2018-03-15T01:49:42.624Z,99139.53
2018-03-15T01:52:10.204Z,99138.20
2018-03-15T01:54:37.792Z,99136.03
2018-03-15T01:57:05.449Z,99137.67
2018-03-15T01:59:33.124Z,99136.84
2018-03-15T02:02:00.953Z,99135.84
2018-03-15T02:04:28.638Z,99135.33
2018-03-15T02:06:56.314Z,99135.95
2018-03-15T02:09:24.030Z,99139.13
2018-03-15T02:11:51.840Z,99136.35
2018-03-15T02:14:19.420Z,99140.44
2018-03-15T02:16:46.984Z,99145.14
2018-03-15T02:19:14.815Z,99146.59
2018-03-15T02:21:42.479Z,99151.20
2018-03-15T02:24:10.150Z,99147.20
2018-03-15T02:26:37.814Z,99150.07
2018-03-15T02:29:05.386Z,99151.30
2018-03-15T02:31:33.133Z,99147.70
2018-03-15T02:34:00.744Z,99149.53
2018-03-15T02:36:28.324Z,99155.98
2018-03-15T02:38:55.906Z,99157.11
2018-03-15T02:41:23.518Z,99158.33
2018-03-15T02:43:51.251Z,99160.98
2018-03-15T02:46:18.892Z,99163.25
2018-03-15T02:48:46.500Z,99160.28
2018-03-15T02:51:14.224Z,99168.38
2018-03-15T02:53:41.879Z,99171.56
2018-03-15T02:56:09.486Z,99171.34
2018-03-15T02:58:37.211Z,99174.28
2018-03-15T03:01:04.792Z,99171.69
2018-03-15T03:03:32.545Z,99171.66
2018-03-15T03:06:00.115Z,99176.47
2018-03-15T03:08:27.858Z,99174.01
2018-03-15T03:10:55.478Z,99188.56
2018-03-15T03:13:23.198Z,99189.17
2018-03-15T03:15:50.845Z,99194.05
2018-03-15T03:18:18.462Z,99193.13
2018-03-15T03:20:46.036Z,99188.88
2018-03-15T03:23:13.609Z,99193.28
2018-03-15T03:25:41.225Z,99192.04
2018-03-15T03:28:08.797Z,99197.17
2018-03-15T03:30:36.393Z,99201.78
2018-03-15T03:33:04.014Z,99200.75
2018-03-15T03:35:31.589Z,99198.20
2018-03-15T03:37:59.173Z,99203.60
2018-03-15T03:40:26.855Z,99203.62
2018-03-15T03:42:54.436Z,99212.12
2018-03-15T03:45:22.175Z,99207.52
2018-03-15T03:47:49.841Z,99212.73
2018-03-15T03:50:17.409Z,99213.45
2018-03-15T03:52:44.976Z,99210.69
2018-03-15T03:55:12.592Z,99214.46
2018-03-15T03:57:40.172Z,99214.66
2018-03-15T04:00:07.972Z,99217.24
2018-03-15T04:02:35.569Z,99229.00
2018-03-15T04:05:03.278Z,99225.00
2018-03-15T04:07:30.888Z,99233.08
2018-03-15T04:09:58.501Z,99233.69
2018-03-15T04:12:26.071Z,99233.05
2018-03-15T04:14:53.636Z,99246.47
2018-03-15T04:17:21.386Z,99243.06
2018-03-15T04:19:48.961Z,99247.96
2018-03-15T04:22:16.529Z,99247.66
2018-03-15T04:24:44.131Z,99254.02
2018-03-15T04:27:11.708Z,99250.13
2018-03-15T04:29:39.288Z,99245.70
2018-03-15T04:32:06.907Z,99258.27
2018-03-15T04:34:34.617Z,99257.84
2018-03-15T04:37:02.270Z,99253.28
2018-03-15T04:39:30.141Z,99257.17
2018-03-15T04:41:57.716Z,99268.86
2018-03-15T04:44:25.471Z,99268.32
2018-03-15T04:46:53.133Z,99273.16
2018-03-15T04:49:20.798Z,99278.60
2018-03-15T04:51:48.364Z,99280.12
2018-03-15T04:54:16.328Z,99281.05
2018-03-15T04:56:43.972Z,99276.72
2018-03-15T04:59:11.633Z,99283.35
2018-03-15T05:01:39.236Z,99277.80
2018-03-15T05:04:06.815Z,99278.54
2018-03-15T05:06:34.388Z,99277.76
2018-03-15T05:09:02.012Z,99280.36
2018-03-15T05:11:29.745Z,99289.68
2018-03-15T05:13:57.314Z,99288.95
2018-03-15T05:16:24.933Z,99290.67
2018-03-15T05:18:52.499Z,99301.51
2018-03-15T05:21:20.080Z,99301.47
2018-03-15T05:23:47.698Z,99303.05
2018-03-15T05:26:15.267Z,99310.70
2018-03-15T05:28:42.874Z,99315.73
2018-03-15T05:31:10.529Z,99312.44
2018-03-15T05:33:38.197Z,99305.21
2018-03-15T05:36:05.772Z,99320.94
2018-03-15T05:38:33.389Z,99320.38
2018-03-15T05:41:01.189Z,99322.58
2018-03-15T05:43:28.853Z,99322.02
2018-03-15T05:45:56.603Z,99330.69
2018-03-15T05:48:24.195Z,99327.05
2018-03-15T05:50:51.840Z,99329.50
2018-03-15T05:53:19.432Z,99333.52
2018-03-15T05:55:47.165Z,99339.39
2018-03-15T05:58:14.826Z,99347.28
2018-03-15T06:00:42.535Z,99345.72
2018-03-15T06:03:10.154Z,99343.19
2018-03-15T06:05:37.828Z,99347.40
2018-03-15T06:08:05.415Z,99342.14
2018-03-15T06:10:33.357Z,99346.50
2018-03-15T06:13:00.942Z,99342.12
2018-03-15T06:15:28.670Z,99347.26
2018-03-15T06:17:56.332Z,99352.42
2018-03-15T06:20:24.005Z,99356.42
2018-03-15T06:22:51.713Z,99357.60
2018-03-15T06:25:19.534Z,99355.29
2018-03-15T06:27:47.198Z,99357.20
2018-03-15T06:30:14.926Z,99363.63
2018-03-15T06:32:42.893Z,99367.77
2018-03-15T06:35:10.582Z,99364.17
2018-03-15T06:37:38.200Z,99366.84
2018-03-15T06:40:05.904Z,99366.85
2018-03-15T06:42:33.710Z,99369.52
2018-03-15T06:45:01.555Z,99375.84
2018-03-15T06:47:29.432Z,99375.28
2018-03-15T06:49:57.389Z,99373.81
2018-03-15T06:52:24.998Z,99374.41
2018-03-15T06:54:52.720Z,99374.52
2018-03-15T06:57:20.309Z,99378.44
2018-03-15T06:59:48.007Z,99369.30
2018-03-15T07:02:15.918Z,99369.41
2018-03-15T07:04:43.501Z,99366.37
2018-03-15T07:07:12.248Z,99368.52
2018-03-15T07:09:39.912Z,99374.59
2018-03-15T07:12:07.564Z,99375.44
2018-03-15T07:14:35.159Z,99374.31
2018-03-15T07:17:02.890Z,99376.59
2018-03-15T07:19:30.551Z,99368.59
2018-03-15T07:21:58.214Z,99368.41
2018-03-15T07:24:25.951Z,99366.25
2018-03-15T07:26:53.741Z,99372.92
2018-03-15T07:29:21.466Z,99368.48
2018-03-15T07:31:49.039Z,99372.16
2018-03-15T07:34:16.617Z,99370.73
2018-03-15T07:36:44.390Z,99370.42
2018-03-15T07:39:12.054Z,99373.69
2018-03-15T07:41:39.628Z,99370.81
2018-03-15T07:44:07.236Z,99370.05
2018-03-15T07:46:34.822Z,99367.48
2018-03-15T07:49:02.498Z,99366.92
2018-03-15T07:51:30.162Z,99362.84
2018-03-15T07:53:57.735Z,99361.23
2018-03-15T07:56:25.495Z,99356.92
2018-03-15T07:58:53.802Z,99361.27
2018-03-15T08:01:21.381Z,99362.23
2018-03-15T08:03:48.943Z,99361.36
2018-03-15T08:06:16.740Z,99362.14
2018-03-15T08:08:44.326Z,99364.55
2018-03-15T08:11:11.900Z,99365.06
2018-03-15T08:13:39.591Z,99358.74
2018-03-15T08:16:07.174Z,99356.22
2018-03-15T08:18:35.070Z,99357.34
2018-03-15T08:21:02.683Z,99356.06
2018-03-15T08:23:30.292Z,99355.93
2018-03-15T08:25:58.054Z,99359.30
2018-03-15T08:28:25.720Z,99348.96
2018-03-15T08:30:53.302Z,99354.91
2018-03-15T08:33:20.954Z,99353.42
2018-03-15T08:35:48.738Z,99351.70
2018-03-15T08:38:16.306Z,99344.53
2018-03-15T08:40:44.032Z,99344.25
2018-03-15T08:43:11.640Z,99339.52
2018-03-15T08:45:39.228Z,99342.81
2018-03-15T08:48:06.813Z,99339.09
2018-03-15T08:50:34.416Z,99346.94
2018-03-15T08:53:01.986Z,99351.78
2018-03-15T08:55:29.597Z,99351.01
2018-03-15T08:57:57.213Z,99348.84
2018-03-15T09:00:24.795Z,99338.09
2018-03-15T09:02:52.382Z,99354.06
2018-03-15T09:05:20.232Z,99349.86
2018-03-15T09:07:47.703Z,99354.20
2018-03-15T09:10:15.359Z,99348.81
2018-03-15T09:12:42.966Z,99349.48
2018-03-15T09:15:10.690Z,99346.71
2018-03-15T09:17:38.351Z,99339.34
2018-03-15T09:20:05.975Z,99343.08
2018-03-15T09:22:33.551Z,99350.67
2018-03-15T09:25:01.387Z,99345.99
2018-03-15T09:27:29.207Z,99339.91
2018-03-15T09:29:56.801Z,99343.69
2018-03-15T09:32:24.419Z,99340.11
2018-03-15T09:34:52.076Z,99344.94
2018-03-15T09:37:19.687Z,99348.84
2018-03-15T09:39:47.291Z,99342.54
2018-03-15T09:42:14.928Z,99350.89
2018-03-15T09:44:42.518Z,99350.54
2018-03-15T09:47:10.111Z,99348.42
2018-03-15T09:49:37.800Z,99351.81
2018-03-15T09:52:05.414Z,99346.55
2018-03-15T09:54:33.002Z,99351.98
2018-03-15T09:57:00.662Z,99362.21
2018-03-15T09:59:28.238Z,99354.19
2018-03-15T10:01:55.863Z,99348.89
2018-03-15T10:04:23.479Z,99349.70
2018-03-15T10:06:51.079Z,99344.23
2018-03-15T10:09:18.683Z,99345.04
2018-03-15T10:11:46.283Z,99350.44
2018-03-15T10:14:13.997Z,99339.27
2018-03-15T10:16:41.608Z,99354.23
2018-03-15T10:19:09.258Z,99344.74
2018-03-15T10:21:36.877Z,99346.30
2018-03-15T10:24:04.538Z,99346.72
2018-03-15T10:26:32.181Z,99344.42
2018-03-15T10:28:59.787Z,99350.98
2018-03-15T10:31:27.364Z,99353.19
2018-03-15T10:33:55.065Z,99339.50
2018-03-15T10:36:22.697Z,99344.75
2018-03-15T10:38:50.298Z,99334.66
2018-03-15T10:41:17.937Z,99333.19
2018-03-15T10:43:45.522Z,99322.86
2018-03-15T10:46:13.173Z,99319.85
2018-03-15T10:48:40.899Z,99307.23
2018-03-15T10:51:08.598Z,99308.03
2018-03-15T10:53:36.206Z,99307.63
2018-03-15T10:56:03.840Z,99304.27
2018-03-15T10:58:31.431Z,99299.64
2018-03-15T11:01:04.673Z,99299.89
2018-03-15T11:03:37.865Z,99291.61
2018-03-15T11:06:10.558Z,99299.22
2018-03-15T11:08:38.549Z,99286.63
2018-03-15T11:11:06.283Z,99283.98
2018-03-15T11:13:33.933Z,99282.56
2018-03-15T11:16:01.574Z,99272.61
2018-03-15T11:18:29.158Z,99269.85
2018-03-15T11:20:56.793Z,99257.16
2018-03-15T11:23:24.456Z,99262.00
2018-03-15T11:25:52.240Z,99261.20
2018-03-15T11:28:19.819Z,99256.86
2018-03-15T11:30:47.431Z,99247.61
2018-03-15T11:33:15.035Z,99252.06
2018-03-15T11:35:42.647Z,99247.75
2018-03-15T11:38:10.289Z,99253.82
2018-03-15T11:40:37.903Z,99245.92
2018-03-15T11:43:05.507Z,99247.26
2018-03-15T11:45:33.134Z,99255.44
2018-03-15T11:48:00.808Z,99252.02
2018-03-15T11:50:28.427Z,99234.60
2018-03-15T11:52:56.101Z,99244.20
2018-03-15T11:55:23.775Z,99240.64
2018-03-15T11:57:51.386Z,99244.72
2018-03-15T12:00:19.237Z,99245.73
2018-03-15T12:02:46.839Z,99240.80
2018-03-15T12:05:14.448Z,99232.64
2018-03-15T12:07:42.106Z,99230.94
2018-03-15T12:10:09.706Z,99231.70
2018-03-15T12:12:37.424Z,99243.83
2018-03-15T12:15:05.273Z,99238.77
2018-03-15T12:17:32.952Z,99237.97
2018-03-15T12:20:00.521Z,99240.53
2018-03-15T12:22:28.113Z,99234.38
2018-03-15T12:24:55.690Z,99222.59
2018-03-15T12:27:23.394Z,99224.88
2018-03-15T12:29:51.003Z,99230.31
2018-03-15T12:32:18.726Z,99227.72
2018-03-15T12:34:46.386Z,99232.33
2018-03-15T12:37:13.976Z,99228.19
2018-03-15T12:39:41.546Z,99230.86
2018-03-15T12:42:09.359Z,99229.06
2018-03-15T12:44:37.006Z,99227.62
2018-03-15T12:47:04.577Z,99232.72
2018-03-15T12:49:32.183Z,99230.14
2018-03-15T12:51:59.800Z,99229.58
2018-03-15T12:54:27.474Z,99233.62
2018-03-15T12:56:55.133Z,99223.34
2018-03-15T12:59:22.717Z,99231.64
2018-03-15T13:01:50.348Z,99232.14
2018-03-15T13:04:18.114Z,99232.14
2018-03-15T13:06:45.796Z,99227.36
2018-03-15T13:09:13.760Z,99221.10
2018-03-15T13:11:41.399Z,99218.88
2018-03-15T13:14:08.965Z,99213.29
2018-03-15T13:16:37.064Z,99206.98
2018-03-15T13:19:04.666Z,99199.17
2018-03-15T13:21:32.231Z,99211.99
2018-03-15T13:23:59.813Z,99213.38
2018-03-15T13:26:30.735Z,99212.97
2018-03-15T13:28:58.387Z,99214.11
2018-03-15T13:31:26.101Z,99208.64
2018-03-15T13:33:53.715Z,99213.81
2018-03-15T13:36:21.280Z,99210.09
2018-03-15T13:38:48.854Z,99219.67
2018-03-15T13:41:16.531Z,99210.20
2018-03-15T13:43:44.111Z,99211.89
2018-03-15T13:46:11.870Z,99213.97
2018-03-15T13:48:39.468Z,99209.89
2018-03-15T13:51:07.050Z,99204.38
2018-03-15T13:53:34.650Z,99206.08
2018-03-15T13:56:02.267Z,99201.58
2018-03-15T13:58:30.056Z,99201.48
2018-03-15T14:00:57.616Z,99201.42
2018-03-15T14:03:25.218Z,99202.17
2018-03-15T14:05:52.837Z,99203.42
2018-03-15T14:08:20.400Z,99203.11
2018-03-15T14:10:49.723Z,99202.41
2018-03-15T14:13:17.469Z,99198.50
2018-03-15T14:15:47.543Z,99201.66
2018-03-15T14:18:15.262Z,99201.43
2018-03-15T14:20:42.932Z,99205.63
2018-03-15T14:23:10.582Z,99204.30
2018-03-15T14:25:38.150Z,99202.53
2018-03-15T14:28:05.774Z,99198.29
2018-03-15T14:30:33.681Z,99194.20
2018-03-15T14:33:01.350Z,99197.28
2018-03-15T14:35:29.006Z,99197.90
2018-03-15T14:37:56.576Z,99192.31
2018-03-15T14:40:24.361Z,99195.66
2018-03-15T14:42:52.096Z,99194.86
2018-03-15T14:45:19.851Z,99205.78
2018-03-15T14:47:47.660Z,99197.80
2018-03-15T14:50:15.285Z,99201.88
2018-03-15T14:52:42.875Z,99205.43
2018-03-15T14:55:10.466Z,99201.11
2018-03-15T14:57:38.066Z,99200.89
2018-03-15T15:00:05.821Z,99212.53
2018-03-15T15:02:33.404Z,99208.75
2018-03-15T15:05:01.023Z,99214.81
2018-03-15T15:07:28.598Z,99221.30
2018-03-15T15:09:56.172Z,99224.67
2018-03-15T15:12:23.784Z,99223.58
2018-03-15T15:14:51.343Z,99220.97
2018-03-15T15:17:18.931Z,99224.88
2018-03-15T15:19:46.536Z,99223.70
2018-03-15T15:22:14.284Z,99218.59
2018-03-15T15:24:41.938Z,99221.05
2018-03-15T15:27:09.605Z,99218.80
2018-03-15T15:29:37.266Z,99218.86
2018-03-15T15:32:04.834Z,99224.48
2018-03-15T15:34:32.440Z,99232.10
2018-03-15T15:37:00.049Z,99238.81
2018-03-15T15:39:27.629Z,99229.35
2018-03-15T15:41:55.447Z,99229.29
2018-03-15T15:44:23.004Z,99232.47
2018-03-15T15:46:50.569Z,99231.44
2018-03-15T15:49:18.188Z,99229.33
2018-03-15T15:51:45.820Z,99233.53
2018-03-15T15:54:13.463Z,99229.20
2018-03-15T15:56:41.089Z,99240.64
2018-03-15T15:59:08.787Z,99237.53
2018-03-15T16:01:36.468Z,99249.67
2018-03-15T16:04:04.323Z,99244.48
2018-03-15T16:06:31.905Z,99241.13
2018-03-15T16:08:59.515Z,99250.02
2018-03-15T16:11:27.128Z,99253.97
2018-03-15T16:13:55.166Z,99260.98
2018-03-15T16:16:22.852Z,99264.39
2018-03-15T16:18:50.482Z,99260.93
2018-03-15T16:21:18.074Z,99267.29
2018-03-15T16:23:45.889Z,99266.70
2018-03-15T16:26:13.692Z,99269.81
2018-03-15T16:28:41.390Z,99260.38
2018-03-15T16:31:08.978Z,99263.91
2018-03-15T16:33:36.694Z,99258.44
2018-03-15T16:36:04.279Z,99261.80
2018-03-15T16:38:31.852Z,99263.33
2018-03-15T16:40:59.862Z,99268.42
2018-03-15T16:43:27.749Z,99266.53
2018-03-15T16:45:55.307Z,99265.23
2018-03-15T16:48:23.077Z,99263.70
2018-03-15T16:50:50.738Z,99262.76
2018-03-15T16:53:18.343Z,99262.89
2018-03-15T16:55:45.962Z,99273.70
2018-03-15T16:58:13.571Z,99277.34
2018-03-15T17:00:41.181Z,99274.64
2018-03-15T17:03:08.832Z,99276.36
2018-03-15T17:05:36.413Z,99278.48
2018-03-15T17:08:04.158Z,99286.78
2018-03-15T17:10:31.832Z,99290.27
2018-03-15T17:12:59.473Z,99296.23
2018-03-15T17:15:27.058Z,99293.98
2018-03-15T17:17:54.657Z,99300.59
2018-03-15T17:20:22.274Z,99306.53
2018-03-15T17:22:49.918Z,99314.28
2018-03-15T17:25:17.520Z,99318.48
2018-03-15T17:27:45.242Z,99320.64
2018-03-15T17:30:12.827Z,99324.22
2018-03-15T17:32:40.492Z,99319.54
2018-03-15T17:35:08.076Z,99328.23
2018-03-15T17:37:35.659Z,99324.05
2018-03-15T17:40:03.348Z,99330.80
2018-03-15T17:42:30.931Z,99334.30
2018-03-15T17:44:58.516Z,99331.09
2018-03-15T17:47:26.151Z,99326.86
2018-03-15T17:49:53.731Z,99327.61
2018-03-15T17:52:21.308Z,99337.78
2018-03-15T17:54:49.120Z,99335.38
2018-03-15T17:59:43.642Z,99324.39
2018-03-15T18:02:11.286Z,99347.71
2018-03-15T18:04:39.050Z,99349.42
2018-03-15T18:07:06.733Z,99352.67
2018-03-15T18:09:34.350Z,99350.84
2018-03-15T18:12:01.935Z,99357.51
2018-03-15T18:14:29.514Z,99348.12
2018-03-15T18:16:57.129Z,99360.02
2018-03-15T18:19:24.696Z,99356.52
2018-03-15T18:21:52.486Z,99363.84
2018-03-15T18:24:20.132Z,99366.74
2018-03-15T18:26:47.722Z,99369.41
2018-03-15T18:29:15.356Z,99367.36
2018-03-15T18:31:43.097Z,99376.08
2018-03-15T18:34:10.798Z,99379.58
2018-03-15T18:36:38.388Z,99384.98
2018-03-15T18:39:06.027Z,99383.30
2018-03-15T18:41:33.611Z,99382.84
2018-03-15T18:44:01.209Z,99389.63
2018-03-15T18:46:28.897Z,99391.52
2018-03-15T18:48:56.473Z,99388.92
2018-03-15T18:51:24.409Z,99388.88
2018-03-15T18:53:52.306Z,99388.83
2018-03-15T18:56:19.974Z,99386.05
2018-03-15T18:58:47.718Z,99388.33
2018-03-15T19:01:15.508Z,99388.80
2018-03-15T19:03:43.075Z,99400.23
2018-03-15T19:06:10.814Z,99403.84
2018-03-15T19:08:38.431Z,99411.80
2018-03-15T19:11:06.048Z,99408.41
2018-03-15T19:13:33.620Z,99413.04
2018-03-15T19:16:01.232Z,99423.77
2018-03-15T19:18:28.809Z,99412.70
2018-03-15T19:20:56.376Z,99416.89
2018-03-15T19:23:23.973Z,99424.23
2018-03-15T19:25:51.561Z,99419.75
2018-03-15T19:28:19.172Z,99417.48
2018-03-15T19:30:46.811Z,99424.23
2018-03-15T19:33:14.505Z,99431.39
2018-03-15T19:35:42.151Z,99432.73
2018-03-15T19:38:09.767Z,99432.73
2018-03-15T19:40:37.484Z,99425.22
2018-03-15T19:43:05.130Z,99423.71
2018-03-15T19:45:32.733Z,99414.30
2018-03-15T19:48:00.303Z,99415.05
2018-03-15T19:50:27.879Z,99412.42
2018-03-15T19:52:55.529Z,99415.91
2018-03-15T19:55:23.257Z,99408.45
2018-03-15T19:57:50.826Z,99403.91
2018-03-15T20:00:18.530Z,99401.18
2018-03-15T20:02:46.137Z,99394.06
2018-03-15T20:05:13.699Z,99391.39
2018-03-15T20:07:41.296Z,99394.63
2018-03-15T20:10:08.861Z,99401.28
2018-03-15T20:12:36.428Z,99396.97
2018-03-15T20:15:04.043Z,99390.14
2018-03-15T20:17:31.608Z,99385.72
2018-03-15T20:19:59.172Z,99390.95
2018-03-15T20:22:32.436Z,99390.25
2018-03-15T20:25:00.006Z,99382.94
2018-03-15T20:27:33.307Z,99390.03
2018-03-15T20:30:00.886Z,99389.25
2018-03-15T20:32:34.034Z,99379.38
2018-03-15T20:35:01.607Z,99383.43
2018-03-15T20:37:29.203Z,99379.61
2018-03-15T20:40:02.251Z,99375.48
2018-03-15T20:42:29.816Z,99371.33
2018-03-15T20:44:57.396Z,99374.41
2018-03-15T20:47:30.609Z,99375.37
2018-03-15T20:49:58.184Z,99363.65
2018-03-15T20:52:25.760Z,99372.15
2018-03-15T20:54:53.361Z,99378.86
2018-03-15T20:57:20.940Z,99380.45
2018-03-15T20:59:48.679Z,99382.03
2018-03-15T21:02:16.268Z,99387.83
2018-03-15T21:04:43.831Z,99382.08
2018-03-15T21:07:11.395Z,99384.68
2018-03-15T21:09:39.000Z,99388.81
2018-03-15T21:12:06.563Z,99391.08
2018-03-15T21:14:34.241Z,99387.11
2018-03-15T21:17:01.818Z,99398.52
2018-03-15T21:19:29.372Z,99395.84
2018-03-15T21:21:57.222Z,99394.84
2018-03-15T21:24:24.820Z,99391.55
2018-03-15T21:26:52.475Z,99390.13
2018-03-15T21:29:20.025Z,99389.99
2018-03-15T21:31:47.630Z,99394.20
2018-03-15T21:34:15.187Z,99397.28
2018-03-15T21:36:42.762Z,99388.45
2018-03-15T21:39:10.366Z,99395.31
2018-03-15T21:41:37.931Z,99395.30
2018-03-15T21:44:05.499Z,99398.58
2018-03-15T21:46:33.108Z,99401.84
2018-03-15T21:49:00.828Z,99392.90
2018-03-15T21:51:28.398Z,99398.23
2018-03-15T21:53:56.008Z,99405.38
2018-03-15T21:56:23.680Z,99402.38
2018-03-15T21:58:51.244Z,99399.21
2018-03-15T22:01:18.856Z,99404.61
2018-03-15T22:03:46.932Z,99404.18
2018-03-15T22:06:14.546Z,99404.31
2018-03-15T22:08:42.213Z,99397.94
2018-03-15T22:11:09.804Z,99399.14
2018-03-15T22:13:37.386Z,99397.41
2018-03-15T22:16:05.014Z,99394.30
2018-03-15T22:18:32.657Z,99393.04
2018-03-15T22:21:00.217Z,99395.59
2018-03-15T22:23:27.827Z,99394.27
2018-03-15T22:25:55.417Z,99388.74
2018-03-15T22:28:22.981Z,99384.75
2018-03-15T22:30:50.590Z,99381.58
2018-03-15T22:33:18.197Z,99380.66
2018-03-15T22:35:45.853Z,99381.04
2018-03-15T22:38:13.478Z,99382.57
2018-03-15T22:40:41.032Z,99378.20
2018-03-15T22:43:08.595Z,99379.63
2018-03-15T22:45:36.198Z,99372.64
2018-03-15T22:48:03.768Z,99378.55
2018-03-15T22:50:31.346Z,99378.31
2018-03-15T22:52:58.953Z,99375.72
2018-03-15T22:55:26.554Z,99376.27
2018-03-15T22:57:54.216Z,99374.79
2018-03-15T23:00:21.828Z,99343.28
2018-03-15T23:02:49.435Z,99372.66
2018-03-15T23:05:17.280Z,99370.38
2018-03-15T23:07:44.884Z,99380.86
2018-03-15T23:10:12.442Z,99375.81
2018-03-15T23:12:40.036Z,99373.14
2018-03-15T23:15:07.656Z,99374.64
2018-03-15T23:17:35.367Z,99372.48
2018-03-15T23:20:02.934Z,99378.41
2018-03-15T23:22:30.630Z,99374.89
2018-03-15T23:24:58.214Z,99370.34
2018-03-15T23:27:25.775Z,99367.88
2018-03-15T23:29:53.371Z,99371.62
2018-03-15T23:32:20.936Z,99373.00
2018-03-15T23:34:48.523Z,99372.75
2018-03-15T23:37:16.150Z,99371.41
2018-03-15T23:39:43.719Z,99368.29
2018-03-15T23:42:11.284Z,99367.99
2018-03-15T23:44:38.889Z,99364.66
2018-03-15T23:47:06.483Z,99358.17
2018-03-15T23:49:34.060Z,99359.80
2018-03-15T23:52:01.756Z,99359.25
2018-03-15T23:54:29.418Z,99358.78
2018-03-15T23:56:56.997Z,99351.97
2018-03-15T23:59:24.761Z,99355.09
